sensor_id;sensor_type;location;lat;lon;timestamp;noise_LAeq;noise_LA_min;noise_LA_max;noise_LA01;noise_LA95
49215;Laerm;45943;53.148;8.204;2023-05-15T00:00:14;41.20;36.26;50.11;;
49215;Laerm;45943;53.148;8.204;2023-05-15T00:02:40;40.82;36.26;43.74;;
49215;Laerm;45943;53.148;8.204;2023-05-15T00:05:06;40.80;35.64;46.70;;
49215;Laerm;45943;53.148;8.204;2023-05-15T00:07:34;40.46;35.29;46.37;;
49215;Laerm;45943;53.148;8.204;2023-05-15T00:10:00;41.09;35.96;45.77;;
49215;Laerm;45943;53.148;8.204;2023-05-15T00:12:26;40.61;35.96;56.43;;
49215;Laerm;45943;53.148;8.204;2023-05-15T00:14:52;40.89;36.94;44.50;;
49215;Laerm;45943;53.148;8.204;2023-05-15T00:17:18;39.66;34.04;42.82;;
49215;Laerm;45943;53.148;8.204;2023-05-15T00:19:44;40.46;34.91;45.18;;
49215;Laerm;45943;53.148;8.204;2023-05-15T00:22:10;40.90;36.54;45.50;;
49215;Laerm;45943;53.148;8.204;2023-05-15T00:24:36;41.56;37.29;45.77;;
49215;Laerm;45943;53.148;8.204;2023-05-15T00:27:02;40.06;36.26;43.31;;
49215;Laerm;45943;53.148;8.204;2023-05-15T00:29:29;40.32;35.64;43.36;;
49215;Laerm;45943;53.148;8.204;2023-05-15T00:31:55;41.00;37.05;44.87;;
49215;Laerm;45943;53.148;8.204;2023-05-15T00:34:21;45.16;37.05;60.12;;
49215;Laerm;45943;53.148;8.204;2023-05-15T00:36:47;41.42;38.12;44.18;;
49215;Laerm;45943;53.148;8.204;2023-05-15T00:39:13;41.22;38.30;44.54;;
49215;Laerm;45943;53.148;8.204;2023-05-15T00:41:39;44.80;36.54;60.19;;
49215;Laerm;45943;53.148;8.204;2023-05-15T00:44:07;41.54;36.80;44.54;;
49215;Laerm;45943;53.148;8.204;2023-05-15T00:46:34;41.40;37.51;44.37;;
49215;Laerm;45943;53.148;8.204;2023-05-15T00:49:02;40.81;35.29;43.89;;
49215;Laerm;45943;53.148;8.204;2023-05-15T00:51:29;41.01;36.80;53.80;;
49215;Laerm;45943;53.148;8.204;2023-05-15T00:53:57;40.96;36.80;44.75;;
49215;Laerm;45943;53.148;8.204;2023-05-15T00:56:24;41.30;37.72;43.48;;
49215;Laerm;45943;53.148;8.204;2023-05-15T00:58:50;40.69;35.96;42.76;;
49215;Laerm;45943;53.148;8.204;2023-05-15T01:01:18;40.25;35.96;43.13;;
49215;Laerm;45943;53.148;8.204;2023-05-15T01:03:44;40.32;36.26;43.74;;
49215;Laerm;45943;53.148;8.204;2023-05-15T01:06:11;41.02;37.05;44.76;;
49215;Laerm;45943;53.148;8.204;2023-05-15T01:08:42;40.58;36.54;43.13;;
49215;Laerm;45943;53.148;8.204;2023-05-15T01:11:10;40.29;36.26;42.95;;
49215;Laerm;45943;53.148;8.204;2023-05-15T01:13:36;41.09;37.51;43.36;;
49215;Laerm;45943;53.148;8.204;2023-05-15T01:16:03;40.94;37.29;43.36;;
49215;Laerm;45943;53.148;8.204;2023-05-15T01:18:29;40.58;37.29;43.01;;
49215;Laerm;45943;53.148;8.204;2023-05-15T01:26:39;43.07;37.72;46.70;;
49215;Laerm;45943;53.148;8.204;2023-05-15T01:32:01;42.27;37.72;45.80;;
49215;Laerm;45943;53.148;8.204;2023-05-15T01:34:48;42.33;38.12;48.32;;
49215;Laerm;45943;53.148;8.204;2023-05-15T01:37:21;42.53;38.65;45.47;;
49215;Laerm;45943;53.148;8.204;2023-05-15T01:39:52;42.35;39.81;46.51;;
49215;Laerm;45943;53.148;8.204;2023-05-15T01:42:21;42.78;40.06;47.08;;
49215;Laerm;45943;53.148;8.204;2023-05-15T01:44:53;41.63;36.80;43.84;;
49215;Laerm;45943;53.148;8.204;2023-05-15T01:47:32;41.52;38.12;44.23;;
49215;Laerm;45943;53.148;8.204;2023-05-15T01:50:02;42.70;38.97;46.57;;
49215;Laerm;45943;53.148;8.204;2023-05-15T01:52:32;41.62;37.92;44.14;;
49215;Laerm;45943;53.148;8.204;2023-05-15T01:55:01;41.34;37.92;44.04;;
49215;Laerm;45943;53.148;8.204;2023-05-15T01:57:29;41.23;36.80;44.50;;
49215;Laerm;45943;53.148;8.204;2023-05-15T01:59:56;45.42;39.27;59.38;;
49215;Laerm;45943;53.148;8.204;2023-05-15T02:02:23;60.73;41.82;75.27;;
49215;Laerm;45943;53.148;8.204;2023-05-15T02:04:51;41.66;38.48;48.56;;
49215;Laerm;45943;53.148;8.204;2023-05-15T02:07:18;42.68;38.65;46.37;;
49215;Laerm;45943;53.148;8.204;2023-05-15T02:09:45;48.68;39.41;64.31;;
49215;Laerm;45943;53.148;8.204;2023-05-15T02:12:12;44.08;39.55;58.71;;
49215;Laerm;45943;53.148;8.204;2023-05-15T02:14:39;43.28;39.81;50.74;;
49215;Laerm;45943;53.148;8.204;2023-05-15T02:17:06;42.94;39.68;47.33;;
49215;Laerm;45943;53.148;8.204;2023-05-15T02:19:32;42.54;39.41;55.03;;
49215;Laerm;45943;53.148;8.204;2023-05-15T02:21:58;45.49;39.41;61.50;;
49215;Laerm;45943;53.148;8.204;2023-05-15T02:24:24;47.96;40.73;61.47;;
49215;Laerm;45943;53.148;8.204;2023-05-15T02:26:58;48.61;41.58;64.61;;
49215;Laerm;45943;53.148;8.204;2023-05-15T02:32:29;50.60;41.22;67.23;;
49215;Laerm;45943;53.148;8.204;2023-05-15T02:37:30;51.11;42.06;66.72;;
49215;Laerm;45943;53.148;8.204;2023-05-15T02:39:58;51.38;41.79;67.32;;
49215;Laerm;45943;53.148;8.204;2023-05-15T02:42:26;52.27;41.90;65.03;;
49215;Laerm;45943;53.148;8.204;2023-05-15T02:44:54;51.39;41.82;66.41;;
49215;Laerm;45943;53.148;8.204;2023-05-15T02:47:21;51.00;42.56;67.57;;
49215;Laerm;45943;53.148;8.204;2023-05-15T02:49:48;49.84;41.58;64.48;;
49215;Laerm;45943;53.148;8.204;2023-05-15T02:52:15;51.95;41.31;66.08;;
49215;Laerm;45943;53.148;8.204;2023-05-15T02:54:41;52.44;40.93;66.31;;
49215;Laerm;45943;53.148;8.204;2023-05-15T02:57:06;51.24;42.13;65.69;;
49215;Laerm;45943;53.148;8.204;2023-05-15T02:59:33;51.24;42.13;66.18;;
49215;Laerm;45943;53.148;8.204;2023-05-15T03:01:59;49.54;41.98;65.68;;
49215;Laerm;45943;53.148;8.204;2023-05-15T03:04:25;49.61;41.82;63.53;;
49215;Laerm;45943;53.148;8.204;2023-05-15T03:06:51;46.50;42.42;58.97;;
49215;Laerm;45943;53.148;8.204;2023-05-15T03:09:17;49.53;41.74;64.01;;
49215;Laerm;45943;53.148;8.204;2023-05-15T03:11:43;53.24;41.13;71.89;;
49215;Laerm;45943;53.148;8.204;2023-05-15T03:14:09;54.22;41.74;71.86;;
49215;Laerm;45943;53.148;8.204;2023-05-15T03:16:35;50.07;41.66;66.24;;
49215;Laerm;45943;53.148;8.204;2023-05-15T03:19:03;52.91;42.21;74.68;;
49215;Laerm;45943;53.148;8.204;2023-05-15T03:21:29;56.01;42.42;71.77;;
49215;Laerm;45943;53.148;8.204;2023-05-15T03:23:56;50.15;42.76;65.58;;
49215;Laerm;45943;53.148;8.204;2023-05-15T03:26:22;49.93;43.13;62.13;;
49215;Laerm;45943;53.148;8.204;2023-05-15T03:28:48;51.15;42.76;64.99;;
49215;Laerm;45943;53.148;8.204;2023-05-15T03:31:14;49.87;43.53;63.55;;
49215;Laerm;45943;53.148;8.204;2023-05-15T03:33:40;50.08;43.31;64.36;;
49215;Laerm;45943;53.148;8.204;2023-05-15T03:36:06;50.67;42.95;66.99;;
49215;Laerm;45943;53.148;8.204;2023-05-15T03:38:32;48.21;44.23;65.92;;
49215;Laerm;45943;53.148;8.204;2023-05-15T03:40:58;58.83;44.32;76.98;;
49215;Laerm;45943;53.148;8.204;2023-05-15T03:43:24;49.50;43.89;66.20;;
49215;Laerm;45943;53.148;8.204;2023-05-15T03:45:50;51.68;43.53;69.56;;
49215;Laerm;45943;53.148;8.204;2023-05-15T03:48:16;48.54;43.07;66.27;;
49215;Laerm;45943;53.148;8.204;2023-05-15T03:50:43;53.14;43.36;77.97;;
49215;Laerm;45943;53.148;8.204;2023-05-15T03:53:10;49.06;43.53;64.80;;
49215;Laerm;45943;53.148;8.204;2023-05-15T03:55:36;49.05;43.53;64.26;;
49215;Laerm;45943;53.148;8.204;2023-05-15T03:58:02;44.92;42.42;51.49;;
49215;Laerm;45943;53.148;8.204;2023-05-15T04:00:28;48.76;42.42;67.95;;
49215;Laerm;45943;53.148;8.204;2023-05-15T04:02:54;65.33;43.99;78.07;;
49215;Laerm;45943;53.148;8.204;2023-05-15T04:05:20;48.20;43.89;55.81;;
49215;Laerm;45943;53.148;8.204;2023-05-15T04:07:46;47.64;43.25;59.78;;
49215;Laerm;45943;53.148;8.204;2023-05-15T04:10:12;52.04;42.56;69.47;;
49215;Laerm;45943;53.148;8.204;2023-05-15T04:12:38;46.90;42.82;62.07;;
49215;Laerm;45943;53.148;8.204;2023-05-15T04:15:21;51.49;42.82;67.35;;
49215;Laerm;45943;53.148;8.204;2023-05-15T04:17:49;44.65;42.82;50.07;;
49215;Laerm;45943;53.148;8.204;2023-05-15T04:20:17;45.71;43.36;58.91;;
49215;Laerm;45943;53.148;8.204;2023-05-15T04:22:44;53.82;43.42;68.73;;
49215;Laerm;45943;53.148;8.204;2023-05-15T04:25:11;46.43;42.63;60.76;;
49215;Laerm;45943;53.148;8.204;2023-05-15T04:27:39;53.12;43.13;71.88;;
49215;Laerm;45943;53.148;8.204;2023-05-15T04:30:06;47.99;42.63;63.89;;
49215;Laerm;45943;53.148;8.204;2023-05-15T04:32:32;44.85;42.56;62.05;;
49215;Laerm;45943;53.148;8.204;2023-05-15T04:34:59;50.56;42.42;66.78;;
49215;Laerm;45943;53.148;8.204;2023-05-15T04:37:26;51.56;42.76;66.77;;
49215;Laerm;45943;53.148;8.204;2023-05-15T04:39:52;55.64;42.76;72.99;;
49215;Laerm;45943;53.148;8.204;2023-05-15T04:42:18;49.50;42.89;64.55;;
49215;Laerm;45943;53.148;8.204;2023-05-15T04:44:45;47.59;43.07;62.56;;
49215;Laerm;45943;53.148;8.204;2023-05-15T04:47:11;49.76;42.89;65.31;;
49215;Laerm;45943;53.148;8.204;2023-05-15T04:49:38;51.20;42.82;67.23;;
49215;Laerm;45943;53.148;8.204;2023-05-15T04:52:04;57.04;42.82;75.68;;
49215;Laerm;45943;53.148;8.204;2023-05-15T04:54:30;44.90;42.82;53.48;;
49215;Laerm;45943;53.148;8.204;2023-05-15T04:56:56;50.96;43.01;65.23;;
49215;Laerm;45943;53.148;8.204;2023-05-15T04:59:22;52.44;43.01;66.64;;
49215;Laerm;45943;53.148;8.204;2023-05-15T05:01:50;54.65;43.31;73.34;;
49215;Laerm;45943;53.148;8.204;2023-05-15T05:04:16;53.93;43.07;66.07;;
49215;Laerm;45943;53.148;8.204;2023-05-15T05:06:45;60.71;43.36;80.22;;
49215;Laerm;45943;53.148;8.204;2023-05-15T05:09:12;57.27;43.79;75.94;;
49215;Laerm;45943;53.148;8.204;2023-05-15T05:11:38;51.81;43.13;65.93;;
49215;Laerm;45943;53.148;8.204;2023-05-15T05:14:11;50.16;42.95;63.14;;
49215;Laerm;45943;53.148;8.204;2023-05-15T05:16:37;50.81;42.56;65.77;;
49215;Laerm;45943;53.148;8.204;2023-05-15T05:19:04;52.36;42.89;65.43;;
49215;Laerm;45943;53.148;8.204;2023-05-15T05:21:31;57.62;43.07;73.86;;
49215;Laerm;45943;53.148;8.204;2023-05-15T05:23:57;52.38;43.07;64.81;;
49215;Laerm;45943;53.148;8.204;2023-05-15T05:26:24;54.65;43.48;68.32;;
49215;Laerm;45943;53.148;8.204;2023-05-15T05:28:51;52.10;43.31;65.66;;
49215;Laerm;45943;53.148;8.204;2023-05-15T05:31:17;52.49;43.13;65.63;;
49215;Laerm;45943;53.148;8.204;2023-05-15T05:33:43;53.23;43.58;66.77;;
49215;Laerm;45943;53.148;8.204;2023-05-15T05:36:09;50.42;43.94;62.49;;
49215;Laerm;45943;53.148;8.204;2023-05-15T05:38:35;52.59;43.53;64.46;;
49215;Laerm;45943;53.148;8.204;2023-05-15T05:41:01;56.90;44.04;70.73;;
49215;Laerm;45943;53.148;8.204;2023-05-15T05:43:28;53.49;43.84;65.53;;
49215;Laerm;45943;53.148;8.204;2023-05-15T05:45:54;53.91;43.19;65.47;;
49215;Laerm;45943;53.148;8.204;2023-05-15T05:48:20;48.62;43.31;63.75;;
49215;Laerm;45943;53.148;8.204;2023-05-15T05:50:46;55.80;43.64;71.62;;
49215;Laerm;45943;53.148;8.204;2023-05-15T05:53:12;54.79;44.09;68.82;;
49215;Laerm;45943;53.148;8.204;2023-05-15T05:55:38;57.54;43.58;75.02;;
49215;Laerm;45943;53.148;8.204;2023-05-15T05:58:05;57.71;43.58;77.99;;
49215;Laerm;45943;53.148;8.204;2023-05-15T06:00:31;77.12;43.84;102.45;;
49215;Laerm;45943;53.148;8.204;2023-05-15T06:02:58;58.13;43.19;80.90;;
49215;Laerm;45943;53.148;8.204;2023-05-15T06:05:25;59.48;43.25;80.78;;
49215;Laerm;45943;53.148;8.204;2023-05-15T06:07:51;66.84;43.31;77.73;;
49215;Laerm;45943;53.148;8.204;2023-05-15T06:10:18;64.66;44.09;75.40;;
49215;Laerm;45943;53.148;8.204;2023-05-15T06:12:44;67.08;58.34;78.22;;
49215;Laerm;45943;53.148;8.204;2023-05-15T06:15:10;64.22;55.12;77.67;;
49215;Laerm;45943;53.148;8.204;2023-05-15T06:17:37;65.11;55.77;80.88;;
49215;Laerm;45943;53.148;8.204;2023-05-15T06:20:04;65.64;56.37;76.98;;
49215;Laerm;45943;53.148;8.204;2023-05-15T06:22:35;63.84;53.70;73.45;;
49215;Laerm;45943;53.148;8.204;2023-05-15T06:25:03;64.52;57.43;71.82;;
49215;Laerm;45943;53.148;8.204;2023-05-15T06:27:31;64.52;57.61;72.59;;
49215;Laerm;45943;53.148;8.204;2023-05-15T06:29:56;65.40;57.07;74.02;;
49215;Laerm;45943;53.148;8.204;2023-05-15T06:32:22;65.75;57.07;75.73;;
49215;Laerm;45943;53.148;8.204;2023-05-15T06:34:49;57.96;42.79;73.12;;
49215;Laerm;45943;53.148;8.204;2023-05-15T06:37:15;51.36;43.01;66.89;;
49215;Laerm;45943;53.148;8.204;2023-05-15T06:39:41;56.48;42.56;70.17;;
49215;Laerm;45943;53.148;8.204;2023-05-15T06:42:07;53.10;42.76;64.91;;
49215;Laerm;45943;53.148;8.204;2023-05-15T06:44:33;50.75;41.90;72.16;;
49215;Laerm;45943;53.148;8.204;2023-05-15T06:46:59;58.49;41.74;80.92;;
49215;Laerm;45943;53.148;8.204;2023-05-15T06:49:26;53.93;41.13;70.63;;
49215;Laerm;45943;53.148;8.204;2023-05-15T06:51:52;55.14;42.06;74.76;;
49215;Laerm;45943;53.148;8.204;2023-05-15T06:54:20;53.82;42.42;70.95;;
49215;Laerm;45943;53.148;8.204;2023-05-15T06:56:45;52.25;44.14;73.41;;
49215;Laerm;45943;53.148;8.204;2023-05-15T06:59:11;58.06;47.26;77.53;;
49215;Laerm;45943;53.148;8.204;2023-05-15T07:01:38;54.98;43.42;73.18;;
49215;Laerm;45943;53.148;8.204;2023-05-15T07:04:04;57.69;42.01;83.19;;
49215;Laerm;45943;53.148;8.204;2023-05-15T07:06:29;50.32;41.22;66.09;;
49215;Laerm;45943;53.148;8.204;2023-05-15T07:08:59;57.70;41.58;80.86;;
49215;Laerm;45943;53.148;8.204;2023-05-15T07:11:26;49.36;41.49;63.21;;
49215;Laerm;45943;53.148;8.204;2023-05-15T07:13:52;54.13;42.28;68.26;;
49215;Laerm;45943;53.148;8.204;2023-05-15T07:16:18;54.17;42.35;79.46;;
49215;Laerm;45943;53.148;8.204;2023-05-15T07:18:44;51.00;41.98;69.57;;
49215;Laerm;45943;53.148;8.204;2023-05-15T07:21:10;62.50;43.07;72.62;;
49215;Laerm;45943;53.148;8.204;2023-05-15T07:23:36;54.04;42.82;68.23;;
49215;Laerm;45943;53.148;8.204;2023-05-15T07:26:02;54.75;44.59;74.18;;
49215;Laerm;45943;53.148;8.204;2023-05-15T07:28:28;54.48;44.71;66.68;;
49215;Laerm;45943;53.148;8.204;2023-05-15T07:30:54;56.55;46.78;74.90;;
49215;Laerm;45943;53.148;8.204;2023-05-15T07:33:20;57.52;47.76;78.37;;
49215;Laerm;45943;53.148;8.204;2023-05-15T07:35:46;54.50;41.31;65.66;;
49215;Laerm;45943;53.148;8.204;2023-05-15T07:38:12;51.89;42.06;76.74;;
49215;Laerm;45943;53.148;8.204;2023-05-15T07:40:38;57.74;41.66;77.70;;
49215;Laerm;45943;53.148;8.204;2023-05-15T07:43:04;56.40;41.56;84.93;;
49215;Laerm;45943;53.148;8.204;2023-05-15T07:45:30;53.04;41.22;79.11;;
49215;Laerm;45943;53.148;8.204;2023-05-15T07:47:56;53.00;41.74;76.07;;
49215;Laerm;45943;53.148;8.204;2023-05-15T07:50:23;54.95;41.82;75.66;;
49215;Laerm;45943;53.148;8.204;2023-05-15T07:52:49;52.69;42.28;72.40;;
49215;Laerm;45943;53.148;8.204;2023-05-15T07:55:15;49.87;41.66;72.86;;
49215;Laerm;45943;53.148;8.204;2023-05-15T07:57:41;54.48;41.66;77.79;;
49215;Laerm;45943;53.148;8.204;2023-05-15T08:00:07;56.19;42.06;76.00;;
49215;Laerm;45943;53.148;8.204;2023-05-15T08:02:35;54.17;41.40;74.45;;
49215;Laerm;45943;53.148;8.204;2023-05-15T08:05:01;51.92;41.03;69.44;;
49215;Laerm;45943;53.148;8.204;2023-05-15T08:07:30;56.80;39.81;73.64;;
49215;Laerm;45943;53.148;8.204;2023-05-15T08:09:56;52.04;41.40;76.85;;
49215;Laerm;45943;53.148;8.204;2023-05-15T08:12:22;54.53;41.74;74.17;;
49215;Laerm;45943;53.148;8.204;2023-05-15T08:14:53;52.86;41.49;73.94;;
49215;Laerm;45943;53.148;8.204;2023-05-15T08:17:20;59.32;42.76;67.62;;
49215;Laerm;45943;53.148;8.204;2023-05-15T08:19:46;65.11;55.44;76.06;;
49215;Laerm;45943;53.148;8.204;2023-05-15T08:22:13;65.65;54.91;75.61;;
49215;Laerm;45943;53.148;8.204;2023-05-15T08:24:39;66.67;59.84;77.47;;
49215;Laerm;45943;53.148;8.204;2023-05-15T08:27:07;66.19;59.50;79.88;;
49215;Laerm;45943;53.148;8.204;2023-05-15T08:29:37;64.10;54.93;73.45;;
49215;Laerm;45943;53.148;8.204;2023-05-15T08:32:05;63.92;57.26;70.73;;
49215;Laerm;45943;53.148;8.204;2023-05-15T08:34:31;64.53;54.84;80.32;;
49215;Laerm;45943;53.148;8.204;2023-05-15T08:36:58;52.41;41.22;76.38;;
49215;Laerm;45943;53.148;8.204;2023-05-15T08:39:24;55.85;41.03;73.94;;
49215;Laerm;45943;53.148;8.204;2023-05-15T08:44:26;52.00;41.74;66.34;;
49215;Laerm;45943;53.148;8.204;2023-05-15T08:46:52;54.22;42.06;72.15;;
49215;Laerm;45943;53.148;8.204;2023-05-15T08:49:26;55.41;41.74;67.81;;
49215;Laerm;45943;53.148;8.204;2023-05-15T08:51:56;55.65;41.82;77.66;;
49215;Laerm;45943;53.148;8.204;2023-05-15T08:54:23;50.75;41.40;67.45;;
49215;Laerm;45943;53.148;8.204;2023-05-15T08:56:49;53.95;41.40;72.06;;
49215;Laerm;45943;53.148;8.204;2023-05-15T08:59:17;49.50;41.82;65.19;;
49215;Laerm;45943;53.148;8.204;2023-05-15T09:01:43;51.62;41.58;67.10;;
49215;Laerm;45943;53.148;8.204;2023-05-15T09:04:09;53.37;41.13;74.78;;
49215;Laerm;45943;53.148;8.204;2023-05-15T09:06:36;52.62;41.66;66.60;;
49215;Laerm;45943;53.148;8.204;2023-05-15T09:09:03;54.69;41.58;77.25;;
49215;Laerm;45943;53.148;8.204;2023-05-15T09:11:30;46.65;40.52;59.48;;
49215;Laerm;45943;53.148;8.204;2023-05-15T09:13:58;50.27;41.40;70.25;;
49215;Laerm;45943;53.148;8.204;2023-05-15T09:16:24;52.10;41.03;77.38;;
49215;Laerm;45943;53.148;8.204;2023-05-15T09:18:51;50.75;40.93;66.56;;
49215;Laerm;45943;53.148;8.204;2023-05-15T09:21:27;55.39;40.93;76.61;;
49215;Laerm;45943;53.148;8.204;2023-05-15T09:24:15;53.82;41.05;70.89;;
49215;Laerm;45943;53.148;8.204;2023-05-15T09:26:43;51.84;41.82;64.48;;
49215;Laerm;45943;53.148;8.204;2023-05-15T09:29:10;52.42;41.49;75.43;;
49215;Laerm;45943;53.148;8.204;2023-05-15T09:31:36;57.96;41.82;86.02;;
49215;Laerm;45943;53.148;8.204;2023-05-15T09:34:02;53.01;44.41;74.94;;
49215;Laerm;45943;53.148;8.204;2023-05-15T09:36:30;54.79;45.11;66.54;;
49215;Laerm;45943;53.148;8.204;2023-05-15T09:38:59;59.50;45.29;81.52;;
49215;Laerm;45943;53.148;8.204;2023-05-15T09:41:26;56.61;47.38;71.39;;
49215;Laerm;45943;53.148;8.204;2023-05-15T09:43:55;56.23;47.60;74.50;;
49215;Laerm;45943;53.148;8.204;2023-05-15T09:46:22;55.85;42.28;67.35;;
49215;Laerm;45943;53.148;8.204;2023-05-15T09:48:49;56.69;42.63;84.30;;
49215;Laerm;45943;53.148;8.204;2023-05-15T09:51:19;50.81;41.49;63.54;;
49215;Laerm;45943;53.148;8.204;2023-05-15T09:53:50;53.18;42.13;69.05;;
49215;Laerm;45943;53.148;8.204;2023-05-15T09:56:17;48.22;41.40;62.13;;
49215;Laerm;45943;53.148;8.204;2023-05-15T09:58:54;51.74;42.13;65.31;;
49215;Laerm;45943;53.148;8.204;2023-05-15T10:01:21;54.95;41.31;82.40;;
49215;Laerm;45943;53.148;8.204;2023-05-15T10:04:01;49.79;41.66;65.29;;
49215;Laerm;45943;53.148;8.204;2023-05-15T10:06:40;49.14;41.82;63.17;;
49215;Laerm;45943;53.148;8.204;2023-05-15T10:09:07;50.68;40.93;64.69;;
49215;Laerm;45943;53.148;8.204;2023-05-15T10:11:34;54.38;42.35;80.05;;
49215;Laerm;45943;53.148;8.204;2023-05-15T10:14:05;56.13;41.22;81.06;;
49215;Laerm;45943;53.148;8.204;2023-05-15T10:16:36;51.30;41.49;64.54;;
49215;Laerm;45943;53.148;8.204;2023-05-15T10:19:05;51.60;41.74;65.85;;
49215;Laerm;45943;53.148;8.204;2023-05-15T10:21:33;55.71;41.63;72.36;;
49215;Laerm;45943;53.148;8.204;2023-05-15T10:24:00;53.07;41.74;72.68;;
49215;Laerm;45943;53.148;8.204;2023-05-15T10:26:36;55.42;42.49;80.70;;
49215;Laerm;45943;53.148;8.204;2023-05-15T10:29:05;50.85;42.35;67.44;;
49215;Laerm;45943;53.148;8.204;2023-05-15T10:31:33;53.58;42.82;65.11;;
49215;Laerm;45943;53.148;8.204;2023-05-15T10:34:00;54.09;42.63;67.34;;
49215;Laerm;45943;53.148;8.204;2023-05-15T10:36:27;55.51;42.56;82.44;;
49215;Laerm;45943;53.148;8.204;2023-05-15T10:38:53;54.04;42.06;69.20;;
49215;Laerm;45943;53.148;8.204;2023-05-15T10:41:20;56.07;41.49;68.30;;
49215;Laerm;45943;53.148;8.204;2023-05-15T10:43:48;54.29;41.90;66.39;;
49215;Laerm;45943;53.148;8.204;2023-05-15T10:46:15;51.38;42.35;66.42;;
49215;Laerm;45943;53.148;8.204;2023-05-15T10:48:41;49.83;43.01;62.71;;
49215;Laerm;45943;53.148;8.204;2023-05-15T10:51:18;53.01;41.58;72.55;;
49215;Laerm;45943;53.148;8.204;2023-05-15T10:53:44;53.17;41.66;63.86;;
49215;Laerm;45943;53.148;8.204;2023-05-15T10:56:12;52.69;40.73;73.90;;
49215;Laerm;45943;53.148;8.204;2023-05-15T10:58:43;52.95;41.03;74.58;;
49215;Laerm;45943;53.148;8.204;2023-05-15T11:01:27;52.20;41.22;68.41;;
49215;Laerm;45943;53.148;8.204;2023-05-15T11:04:16;52.99;40.83;73.27;;
49215;Laerm;45943;53.148;8.204;2023-05-15T11:06:44;50.54;41.22;64.96;;
49215;Laerm;45943;53.148;8.204;2023-05-15T11:11:55;51.28;40.18;75.88;;
49215;Laerm;45943;53.148;8.204;2023-05-15T11:14:22;52.91;41.40;72.04;;
49215;Laerm;45943;53.148;8.204;2023-05-15T11:19:21;59.65;41.49;73.81;;
49215;Laerm;45943;53.148;8.204;2023-05-15T11:21:55;58.60;42.13;81.61;;
49215;Laerm;45943;53.148;8.204;2023-05-15T11:24:28;55.34;41.82;71.65;;
49215;Laerm;45943;53.148;8.204;2023-05-15T11:26:59;52.67;41.03;78.41;;
49215;Laerm;45943;53.148;8.204;2023-05-15T11:29:25;62.75;41.66;85.08;;
49215;Laerm;45943;53.148;8.204;2023-05-15T11:31:51;59.53;40.30;87.26;;
49215;Laerm;45943;53.148;8.204;2023-05-15T11:34:34;60.42;41.40;80.41;;
49215;Laerm;45943;53.148;8.204;2023-05-15T11:37:09;53.93;40.93;70.48;;
49215;Laerm;45943;53.148;8.204;2023-05-15T11:39:43;54.57;41.22;70.15;;
49215;Laerm;45943;53.148;8.204;2023-05-15T11:42:10;54.88;41.98;80.41;;
49215;Laerm;45943;53.148;8.204;2023-05-15T11:44:36;60.43;41.66;82.01;;
49215;Laerm;45943;53.148;8.204;2023-05-15T11:47:03;58.33;43.94;75.35;;
49215;Laerm;45943;53.148;8.204;2023-05-15T11:49:29;56.21;44.41;80.11;;
49215;Laerm;45943;53.148;8.204;2023-05-15T11:51:55;49.64;41.31;62.60;;
49215;Laerm;45943;53.148;8.204;2023-05-15T11:54:22;47.71;41.03;62.22;;
49215;Laerm;45943;53.148;8.204;2023-05-15T11:56:48;52.99;42.49;63.58;;
49215;Laerm;45943;53.148;8.204;2023-05-15T11:59:14;50.39;41.49;63.95;;
49215;Laerm;45943;53.148;8.204;2023-05-15T12:01:41;54.08;42.28;65.59;;
49215;Laerm;45943;53.148;8.204;2023-05-15T12:04:11;57.56;44.23;67.79;;
49215;Laerm;45943;53.148;8.204;2023-05-15T12:06:38;55.42;42.63;66.22;;
49215;Laerm;45943;53.148;8.204;2023-05-15T12:09:04;58.54;43.07;75.70;;
49215;Laerm;45943;53.148;8.204;2023-05-15T12:11:30;51.58;42.28;63.03;;
49215;Laerm;45943;53.148;8.204;2023-05-15T12:13:56;58.40;42.69;74.99;;
49215;Laerm;45943;53.148;8.204;2023-05-15T12:16:24;50.38;42.35;63.79;;
49215;Laerm;45943;53.148;8.204;2023-05-15T12:18:51;51.91;42.69;68.09;;
49215;Laerm;45943;53.148;8.204;2023-05-15T12:21:17;49.73;42.82;62.72;;
49215;Laerm;45943;53.148;8.204;2023-05-15T12:23:50;54.09;42.82;67.62;;
49215;Laerm;45943;53.148;8.204;2023-05-15T12:26:21;52.14;42.49;67.39;;
49215;Laerm;45943;53.148;8.204;2023-05-15T12:28:49;50.66;42.35;62.28;;
49215;Laerm;45943;53.148;8.204;2023-05-15T12:31:16;50.99;42.63;66.14;;
49215;Laerm;45943;53.148;8.204;2023-05-15T12:33:43;55.10;42.69;68.67;;
49215;Laerm;45943;53.148;8.204;2023-05-15T12:36:09;52.04;43.19;63.76;;
49215;Laerm;45943;53.148;8.204;2023-05-15T12:38:35;52.39;42.21;67.69;;
49215;Laerm;45943;53.148;8.204;2023-05-15T12:41:02;53.33;42.28;71.56;;
49215;Laerm;45943;53.148;8.204;2023-05-15T12:43:30;52.41;42.28;67.26;;
49215;Laerm;45943;53.148;8.204;2023-05-15T12:45:56;49.92;41.74;66.63;;
49215;Laerm;45943;53.148;8.204;2023-05-15T12:48:28;49.88;42.06;64.28;;
49215;Laerm;45943;53.148;8.204;2023-05-15T12:50:54;57.81;42.76;78.05;;
49215;Laerm;45943;53.148;8.204;2023-05-15T12:53:21;58.89;42.89;77.18;;
49215;Laerm;45943;53.148;8.204;2023-05-15T12:55:46;50.72;42.82;66.68;;
49215;Laerm;45943;53.148;8.204;2023-05-15T12:58:14;50.90;42.76;69.34;;
49215;Laerm;45943;53.148;8.204;2023-05-15T13:00:43;55.28;42.21;68.71;;
49215;Laerm;45943;53.148;8.204;2023-05-15T13:03:13;52.24;42.49;63.12;;
49215;Laerm;45943;53.148;8.204;2023-05-15T13:05:43;48.58;42.21;64.46;;
49215;Laerm;45943;53.148;8.204;2023-05-15T13:08:14;52.85;41.98;69.58;;
49215;Laerm;45943;53.148;8.204;2023-05-15T13:10:41;53.59;42.28;64.48;;
49215;Laerm;45943;53.148;8.204;2023-05-15T13:13:07;59.95;43.93;72.76;;
49215;Laerm;45943;53.148;8.204;2023-05-15T13:15:44;75.62;43.42;96.63;;
49215;Laerm;45943;53.148;8.204;2023-05-15T13:18:12;50.97;42.73;63.80;;
49215;Laerm;45943;53.148;8.204;2023-05-15T13:20:49;52.10;42.41;64.73;;
49215;Laerm;45943;53.148;8.204;2023-05-15T13:23:19;53.83;42.89;68.91;;
49215;Laerm;45943;53.148;8.204;2023-05-15T13:25:46;51.37;42.69;66.38;;
49215;Laerm;45943;53.148;8.204;2023-05-15T13:28:12;52.50;43.19;64.76;;
49215;Laerm;45943;53.148;8.204;2023-05-15T13:30:39;47.14;42.95;60.55;;
49215;Laerm;45943;53.148;8.204;2023-05-15T13:33:10;54.39;43.69;66.20;;
49215;Laerm;45943;53.148;8.204;2023-05-15T13:35:37;51.61;43.13;62.72;;
49215;Laerm;45943;53.148;8.204;2023-05-15T13:38:04;51.45;42.63;66.36;;
49215;Laerm;45943;53.148;8.204;2023-05-15T13:40:30;55.71;43.01;70.17;;
49215;Laerm;45943;53.148;8.204;2023-05-15T13:42:58;50.96;42.95;64.62;;
49215;Laerm;45943;53.148;8.204;2023-05-15T13:45:24;51.44;43.36;68.50;;
49215;Laerm;45943;53.148;8.204;2023-05-15T13:47:50;53.32;43.25;65.63;;
49215;Laerm;45943;53.148;8.204;2023-05-15T13:50:18;55.08;43.19;70.14;;
49215;Laerm;45943;53.148;8.204;2023-05-15T13:52:45;52.53;42.28;63.73;;
49215;Laerm;45943;53.148;8.204;2023-05-15T13:55:11;52.73;43.25;67.26;;
49215;Laerm;45943;53.148;8.204;2023-05-15T13:57:38;55.32;43.64;67.99;;
49215;Laerm;45943;53.148;8.204;2023-05-15T14:00:06;62.64;42.49;87.90;;
49215;Laerm;45943;53.148;8.204;2023-05-15T14:02:33;51.68;42.28;68.53;;
49215;Laerm;45943;53.148;8.204;2023-05-15T14:04:59;54.30;42.89;74.48;;
49215;Laerm;45943;53.148;8.204;2023-05-15T14:07:25;57.11;42.82;73.87;;